sensor_id;sensor_type;location;lat;lon;timestamp;temperature;humidity
8043;DHT22;4064;48.132;11.366;2023-03-05T00:02:11;-0.20;99.80
8043;DHT22;4064;48.132;11.366;2023-03-05T00:04:37;-0.20;99.90
8043;DHT22;4064;48.132;11.366;2023-03-05T00:07:03;-0.10;99.90
8043;DHT22;4064;48.132;11.366;2023-03-05T00:09:30;-0.10;99.90
8043;DHT22;4064;48.132;11.366;2023-03-05T00:11:55;-0.10;99.90
8043;DHT22;4064;48.132;11.366;2023-03-05T00:14:22;-0.10;99.90
8043;DHT22;4064;48.132;11.366;2023-03-05T00:16:47;-0.10;99.90
8043;DHT22;4064;48.132;11.366;2023-03-05T00:19:13;-0.10;99.60
8043;DHT22;4064;48.132;11.366;2023-03-05T00:21:40;-0.10;99.80
8043;DHT22;4064;48.132;11.366;2023-03-05T00:24:12;-0.20;99.90
8043;DHT22;4064;48.132;11.366;2023-03-05T00:26:39;-0.20;99.90
8043;DHT22;4064;48.132;11.366;2023-03-05T00:29:06;-0.20;99.90
8043;DHT22;4064;48.132;11.366;2023-03-05T00:31:33;-0.20;99.90
8043;DHT22;4064;48.132;11.366;2023-03-05T00:34:06;-0.20;99.90
8043;DHT22;4064;48.132;11.366;2023-03-05T00:36:32;-0.20;99.90
8043;DHT22;4064;48.132;11.366;2023-03-05T00:38:58;-0.20;99.90
8043;DHT22;4064;48.132;11.366;2023-03-05T00:41:24;-0.20;99.90
8043;DHT22;4064;48.132;11.366;2023-03-05T00:43:50;-0.20;99.90
8043;DHT22;4064;48.132;11.366;2023-03-05T00:46:17;-0.20;99.90
8043;DHT22;4064;48.132;11.366;2023-03-05T00:48:43;-0.20;99.90
8043;DHT22;4064;48.132;11.366;2023-03-05T00:51:09;-0.20;99.90
8043;DHT22;4064;48.132;11.366;2023-03-05T00:53:35;-0.20;99.90
8043;DHT22;4064;48.132;11.366;2023-03-05T00:56:00;-0.30;99.90
8043;DHT22;4064;48.132;11.366;2023-03-05T00:58:26;-0.30;99.90
8043;DHT22;4064;48.132;11.366;2023-03-05T01:00:55;-0.40;99.90
8043;DHT22;4064;48.132;11.366;2023-03-05T01:03:21;-0.30;99.90
8043;DHT22;4064;48.132;11.366;2023-03-05T01:05:47;-0.40;99.90
8043;DHT22;4064;48.132;11.366;2023-03-05T01:08:13;-0.30;99.90
8043;DHT22;4064;48.132;11.366;2023-03-05T01:10:39;-0.30;99.90
8043;DHT22;4064;48.132;11.366;2023-03-05T01:13:05;-0.30;99.90
8043;DHT22;4064;48.132;11.366;2023-03-05T01:15:31;-0.30;99.90
8043;DHT22;4064;48.132;11.366;2023-03-05T01:17:56;-0.30;99.90
8043;DHT22;4064;48.132;11.366;2023-03-05T01:20:22;-0.20;99.90
8043;DHT22;4064;48.132;11.366;2023-03-05T01:22:48;-0.30;99.90
8043;DHT22;4064;48.132;11.366;2023-03-05T01:25:15;-0.20;99.90
8043;DHT22;4064;48.132;11.366;2023-03-05T01:27:42;-0.20;99.90
8043;DHT22;4064;48.132;11.366;2023-03-05T01:30:09;-0.10;99.90
8043;DHT22;4064;48.132;11.366;2023-03-05T01:32:35;-0.10;99.90
8043;DHT22;4064;48.132;11.366;2023-03-05T01:35:02;-0.20;99.90
8043;DHT22;4064;48.132;11.366;2023-03-05T01:37:29;-0.20;99.90
8043;DHT22;4064;48.132;11.366;2023-03-05T01:39:55;-0.10;99.90
8043;DHT22;4064;48.132;11.366;2023-03-05T01:42:21;-0.10;99.90
8043;DHT22;4064;48.132;11.366;2023-03-05T01:45:19;-0.10;99.90
8043;DHT22;4064;48.132;11.366;2023-03-05T01:47:44;-0.10;99.90
8043;DHT22;4064;48.132;11.366;2023-03-05T01:50:16;0.00;99.90
8043;DHT22;4064;48.132;11.366;2023-03-05T01:52:48;-0.10;99.90
8043;DHT22;4064;48.132;11.366;2023-03-05T01:55:20;0.00;99.90
8043;DHT22;4064;48.132;11.366;2023-03-05T01:57:50;-0.10;99.90
8043;DHT22;4064;48.132;11.366;2023-03-05T02:00:25;-0.10;99.90
8043;DHT22;4064;48.132;11.366;2023-03-05T02:02:52;-0.10;99.90
8043;DHT22;4064;48.132;11.366;2023-03-05T02:05:26;0.00;99.90
8043;DHT22;4064;48.132;11.366;2023-03-05T02:08:12;0.00;99.90
8043;DHT22;4064;48.132;11.366;2023-03-05T02:10:48;0.00;99.90
8043;DHT22;4064;48.132;11.366;2023-03-05T02:13:28;0.00;99.90
8043;DHT22;4064;48.132;11.366;2023-03-05T02:15:57;0.00;99.90
8043;DHT22;4064;48.132;11.366;2023-03-05T02:18:23;0.10;99.90
8043;DHT22;4064;48.132;11.366;2023-03-05T02:23:19;0.00;99.90
8043;DHT22;4064;48.132;11.366;2023-03-05T02:25:45;0.00;99.90
8043;DHT22;4064;48.132;11.366;2023-03-05T02:30:54;0.00;99.90
8043;DHT22;4064;48.132;11.366;2023-03-05T02:33:19;0.00;99.90
8043;DHT22;4064;48.132;11.366;2023-03-05T02:35:45;0.10;99.90
8043;DHT22;4064;48.132;11.366;2023-03-05T02:38:13;0.10;99.90
8043;DHT22;4064;48.132;11.366;2023-03-05T02:40:39;0.10;99.90
8043;DHT22;4064;48.132;11.366;2023-03-05T02:43:05;0.10;99.90
8043;DHT22;4064;48.132;11.366;2023-03-05T02:45:31;0.10;99.90
8043;DHT22;4064;48.132;11.366;2023-03-05T02:47:57;0.10;99.90
8043;DHT22;4064;48.132;11.366;2023-03-05T02:50:23;0.10;99.90
8043;DHT22;4064;48.132;11.366;2023-03-05T02:52:50;0.20;99.90
8043;DHT22;4064;48.132;11.366;2023-03-05T02:55:16;0.20;99.90
8043;DHT22;4064;48.132;11.366;2023-03-05T02:57:42;0.10;99.90
8043;DHT22;4064;48.132;11.366;2023-03-05T03:00:08;0.20;99.90
8043;DHT22;4064;48.132;11.366;2023-03-05T03:02:34;0.20;99.90
8043;DHT22;4064;48.132;11.366;2023-03-05T03:05:00;0.20;99.90
8043;DHT22;4064;48.132;11.366;2023-03-05T03:07:26;0.20;99.90
8043;DHT22;4064;48.132;11.366;2023-03-05T03:09:52;0.20;99.90
8043;DHT22;4064;48.132;11.366;2023-03-05T03:12:18;0.20;99.90
8043;DHT22;4064;48.132;11.366;2023-03-05T03:14:44;0.20;99.90
8043;DHT22;4064;48.132;11.366;2023-03-05T03:17:14;0.20;99.90
8043;DHT22;4064;48.132;11.366;2023-03-05T03:19:42;0.20;99.90
8043;DHT22;4064;48.132;11.366;2023-03-05T03:22:09;0.20;99.90
8043;DHT22;4064;48.132;11.366;2023-03-05T03:24:36;0.20;99.90
8043;DHT22;4064;48.132;11.366;2023-03-05T03:27:03;0.20;99.90
8043;DHT22;4064;48.132;11.366;2023-03-05T03:29:29;0.20;99.90
8043;DHT22;4064;48.132;11.366;2023-03-05T03:31:55;0.30;99.90
8043;DHT22;4064;48.132;11.366;2023-03-05T03:34:21;0.30;99.90
8043;DHT22;4064;48.132;11.366;2023-03-05T03:36:48;0.30;99.90
8043;DHT22;4064;48.132;11.366;2023-03-05T03:39:14;0.20;99.90
8043;DHT22;4064;48.132;11.366;2023-03-05T03:41:42;0.30;99.90
8043;DHT22;4064;48.132;11.366;2023-03-05T03:44:08;0.30;99.90
8043;DHT22;4064;48.132;11.366;2023-03-05T03:46:36;0.30;99.90
8043;DHT22;4064;48.132;11.366;2023-03-05T03:49:03;0.30;99.90
8043;DHT22;4064;48.132;11.366;2023-03-05T03:51:29;0.30;99.90
8043;DHT22;4064;48.132;11.366;2023-03-05T03:53:55;0.30;99.90
8043;DHT22;4064;48.132;11.366;2023-03-05T03:56:21;0.30;99.90
8043;DHT22;4064;48.132;11.366;2023-03-05T03:58:49;0.30;99.90
8043;DHT22;4064;48.132;11.366;2023-03-05T04:01:16;0.30;99.90
8043;DHT22;4064;48.132;11.366;2023-03-05T04:03:42;0.40;99.90
8043;DHT22;4064;48.132;11.366;2023-03-05T04:06:08;0.40;99.90
8043;DHT22;4064;48.132;11.366;2023-03-05T04:08:34;0.40;99.90
8043;DHT22;4064;48.132;11.366;2023-03-05T04:11:00;0.40;99.90
8043;DHT22;4064;48.132;11.366;2023-03-05T04:13:26;0.40;99.90
8043;DHT22;4064;48.132;11.366;2023-03-05T04:15:53;0.40;99.90
8043;DHT22;4064;48.132;11.366;2023-03-05T04:18:19;0.40;99.90
8043;DHT22;4064;48.132;11.366;2023-03-05T04:20:45;0.40;99.90
8043;DHT22;4064;48.132;11.366;2023-03-05T04:23:10;0.40;99.90
8043;DHT22;4064;48.132;11.366;2023-03-05T04:25:36;0.50;99.90
8043;DHT22;4064;48.132;11.366;2023-03-05T04:28:02;0.50;99.90
8043;DHT22;4064;48.132;11.366;2023-03-05T04:30:27;0.50;99.90
8043;DHT22;4064;48.132;11.366;2023-03-05T04:32:53;0.50;99.90
8043;DHT22;4064;48.132;11.366;2023-03-05T04:35:19;0.50;99.90
8043;DHT22;4064;48.132;11.366;2023-03-05T04:37:45;0.50;99.90
8043;DHT22;4064;48.132;11.366;2023-03-05T04:40:11;0.50;99.90
8043;DHT22;4064;48.132;11.366;2023-03-05T04:42:37;0.50;99.90
8043;DHT22;4064;48.132;11.366;2023-03-05T04:45:04;0.50;99.90
8043;DHT22;4064;48.132;11.366;2023-03-05T04:47:31;0.50;99.90
8043;DHT22;4064;48.132;11.366;2023-03-05T04:49:57;0.50;99.90
8043;DHT22;4064;48.132;11.366;2023-03-05T04:52:22;0.50;99.90
8043;DHT22;4064;48.132;11.366;2023-03-05T04:54:48;0.50;99.90
8043;DHT22;4064;48.132;11.366;2023-03-05T04:57:14;0.50;99.90
8043;DHT22;4064;48.132;11.366;2023-03-05T04:59:40;0.50;99.90
8043;DHT22;4064;48.132;11.366;2023-03-05T05:02:05;0.50;99.90
8043;DHT22;4064;48.132;11.366;2023-03-05T05:04:31;0.50;99.90
8043;DHT22;4064;48.132;11.366;2023-03-05T05:06:57;0.50;99.90
8043;DHT22;4064;48.132;11.366;2023-03-05T05:09:24;0.50;99.90
8043;DHT22;4064;48.132;11.366;2023-03-05T05:11:50;0.60;99.90
8043;DHT22;4064;48.132;11.366;2023-03-05T05:14:16;0.60;99.90
8043;DHT22;4064;48.132;11.366;2023-03-05T05:16:42;0.60;99.90
8043;DHT22;4064;48.132;11.366;2023-03-05T05:19:07;0.60;99.90
8043;DHT22;4064;48.132;11.366;2023-03-05T05:21:33;0.60;99.90
8043;DHT22;4064;48.132;11.366;2023-03-05T05:23:59;0.60;99.90
8043;DHT22;4064;48.132;11.366;2023-03-05T05:26:25;0.60;99.90
8043;DHT22;4064;48.132;11.366;2023-03-05T05:28:52;0.60;99.90
8043;DHT22;4064;48.132;11.366;2023-03-05T05:31:18;0.70;99.90
8043;DHT22;4064;48.132;11.366;2023-03-05T05:33:44;0.70;99.90
8043;DHT22;4064;48.132;11.366;2023-03-05T05:36:15;0.70;99.90
8043;DHT22;4064;48.132;11.366;2023-03-05T05:38:41;0.70;99.90
8043;DHT22;4064;48.132;11.366;2023-03-05T05:41:12;0.80;99.90
8043;DHT22;4064;48.132;11.366;2023-03-05T05:43:38;0.80;99.90
8043;DHT22;4064;48.132;11.366;2023-03-05T05:46:13;0.80;99.90
8043;DHT22;4064;48.132;11.366;2023-03-05T05:48:39;0.80;99.90
8043;DHT22;4064;48.132;11.366;2023-03-05T05:51:17;0.80;99.90
8043;DHT22;4064;48.132;11.366;2023-03-05T05:53:43;0.80;99.90
8043;DHT22;4064;48.132;11.366;2023-03-05T05:56:11;0.80;99.90
8043;DHT22;4064;48.132;11.366;2023-03-05T05:58:37;0.80;99.90
8043;DHT22;4064;48.132;11.366;2023-03-05T06:01:19;0.80;99.90
8043;DHT22;4064;48.132;11.366;2023-03-05T06:03:45;0.80;99.90
8043;DHT22;4064;48.132;11.366;2023-03-05T06:06:13;0.90;99.90
8043;DHT22;4064;48.132;11.366;2023-03-05T06:08:39;0.90;99.90
8043;DHT22;4064;48.132;11.366;2023-03-05T06:11:06;0.90;99.90
8043;DHT22;4064;48.132;11.366;2023-03-05T06:13:32;0.90;99.90
8043;DHT22;4064;48.132;11.366;2023-03-05T06:16:00;0.90;99.90
8043;DHT22;4064;48.132;11.366;2023-03-05T06:18:27;0.90;99.90
8043;DHT22;4064;48.132;11.366;2023-03-05T06:21:07;0.90;99.90
8043;DHT22;4064;48.132;11.366;2023-03-05T06:23:33;0.90;99.90
8043;DHT22;4064;48.132;11.366;2023-03-05T06:26:01;0.90;99.90
8043;DHT22;4064;48.132;11.366;2023-03-05T06:28:28;1.00;99.90
8043;DHT22;4064;48.132;11.366;2023-03-05T06:33:33;1.00;99.90
8043;DHT22;4064;48.132;11.366;2023-03-05T06:36:01;1.00;99.90
8043;DHT22;4064;48.132;11.366;2023-03-05T06:38:27;1.00;99.90
8043;DHT22;4064;48.132;11.366;2023-03-05T06:40:53;1.10;99.90
8043;DHT22;4064;48.132;11.366;2023-03-05T06:43:19;1.10;99.90
8043;DHT22;4064;48.132;11.366;2023-03-05T06:45:45;1.10;99.90
8043;DHT22;4064;48.132;11.366;2023-03-05T06:48:10;1.10;99.90
8043;DHT22;4064;48.132;11.366;2023-03-05T06:50:37;1.10;99.90
8043;DHT22;4064;48.132;11.366;2023-03-05T06:53:03;1.10;99.90
8043;DHT22;4064;48.132;11.366;2023-03-05T06:55:35;1.10;99.90
8043;DHT22;4064;48.132;11.366;2023-03-05T06:58:04;1.10;99.90
8043;DHT22;4064;48.132;11.366;2023-03-05T07:00:30;1.20;99.90
8043;DHT22;4064;48.132;11.366;2023-03-05T07:02:56;1.20;99.90
8043;DHT22;4064;48.132;11.366;2023-03-05T07:05:21;1.20;99.90
8043;DHT22;4064;48.132;11.366;2023-03-05T07:07:47;1.20;99.90
8043;DHT22;4064;48.132;11.366;2023-03-05T07:10:13;1.20;99.90
8043;DHT22;4064;48.132;11.366;2023-03-05T07:12:38;1.20;99.90
8043;DHT22;4064;48.132;11.366;2023-03-05T07:15:06;1.20;99.90
8043;DHT22;4064;48.132;11.366;2023-03-05T07:17:32;1.20;99.90
8043;DHT22;4064;48.132;11.366;2023-03-05T07:19:58;1.20;99.90
8043;DHT22;4064;48.132;11.366;2023-03-05T07:22:24;1.20;99.90
8043;DHT22;4064;48.132;11.366;2023-03-05T07:24:50;1.20;99.90
8043;DHT22;4064;48.132;11.366;2023-03-05T07:27:16;1.30;99.90
8043;DHT22;4064;48.132;11.366;2023-03-05T07:29:41;1.30;99.90
8043;DHT22;4064;48.132;11.366;2023-03-05T07:32:07;1.30;99.90
8043;DHT22;4064;48.132;11.366;2023-03-05T07:34:33;1.30;99.90
8043;DHT22;4064;48.132;11.366;2023-03-05T07:36:59;1.30;99.90
8043;DHT22;4064;48.132;11.366;2023-03-05T07:39:24;1.30;99.90
8043;DHT22;4064;48.132;11.366;2023-03-05T07:41:50;1.40;99.90
8043;DHT22;4064;48.132;11.366;2023-03-05T07:44:17;1.40;99.90
8043;DHT22;4064;48.132;11.366;2023-03-05T07:46:43;1.40;99.90
8043;DHT22;4064;48.132;11.366;2023-03-05T07:49:09;1.40;99.90
8043;DHT22;4064;48.132;11.366;2023-03-05T07:51:34;1.50;99.90
8043;DHT22;4064;48.132;11.366;2023-03-05T07:54:01;1.50;99.90
8043;DHT22;4064;48.132;11.366;2023-03-05T07:56:32;1.50;99.90
8043;DHT22;4064;48.132;11.366;2023-03-05T07:59:01;1.50;99.90
8043;DHT22;4064;48.132;11.366;2023-03-05T08:03:55;1.60;99.90
8043;DHT22;4064;48.132;11.366;2023-03-05T08:06:21;1.70;99.90
8043;DHT22;4064;48.132;11.366;2023-03-05T08:08:47;1.70;99.90
8043;DHT22;4064;48.132;11.366;2023-03-05T08:11:14;1.70;99.90
8043;DHT22;4064;48.132;11.366;2023-03-05T08:13:41;1.80;99.90
8043;DHT22;4064;48.132;11.366;2023-03-05T08:16:13;1.80;99.90
8043;DHT22;4064;48.132;11.366;2023-03-05T08:18:39;1.80;99.90
8043;DHT22;4064;48.132;11.366;2023-03-05T08:21:05;1.80;99.90
8043;DHT22;4064;48.132;11.366;2023-03-05T08:23:31;1.90;99.90
8043;DHT22;4064;48.132;11.366;2023-03-05T08:25:58;1.90;99.90
8043;DHT22;4064;48.132;11.366;2023-03-05T08:28:24;2.00;99.90
8043;DHT22;4064;48.132;11.366;2023-03-05T08:30:50;2.00;99.90
8043;DHT22;4064;48.132;11.366;2023-03-05T08:33:16;2.10;99.90
8043;DHT22;4064;48.132;11.366;2023-03-05T08:35:42;2.10;99.90
8043;DHT22;4064;48.132;11.366;2023-03-05T08:38:08;2.20;99.90
8043;DHT22;4064;48.132;11.366;2023-03-05T08:40:34;2.30;99.90
8043;DHT22;4064;48.132;11.366;2023-03-05T08:43:00;2.30;99.90
8043;DHT22;4064;48.132;11.366;2023-03-05T08:45:26;2.40;99.90
8043;DHT22;4064;48.132;11.366;2023-03-05T08:47:56;2.40;99.90
8043;DHT22;4064;48.132;11.366;2023-03-05T08:50:22;2.40;99.90
8043;DHT22;4064;48.132;11.366;2023-03-05T08:52:49;2.40;99.90
8043;DHT22;4064;48.132;11.366;2023-03-05T08:55:15;2.40;99.90
8043;DHT22;4064;48.132;11.366;2023-03-05T08:57:41;2.40;99.90
8043;DHT22;4064;48.132;11.366;2023-03-05T09:00:07;2.50;99.90
8043;DHT22;4064;48.132;11.366;2023-03-05T09:02:35;2.50;99.90
8043;DHT22;4064;48.132;11.366;2023-03-05T09:05:02;2.50;99.90
8043;DHT22;4064;48.132;11.366;2023-03-05T09:07:28;2.50;99.90
8043;DHT22;4064;48.132;11.366;2023-03-05T09:09:53;2.50;99.90
8043;DHT22;4064;48.132;11.366;2023-03-05T09:12:19;2.40;99.90
8043;DHT22;4064;48.132;11.366;2023-03-05T09:14:45;2.50;99.90
8043;DHT22;4064;48.132;11.366;2023-03-05T09:17:11;2.50;99.90
8043;DHT22;4064;48.132;11.366;2023-03-05T09:19:36;2.50;99.90
8043;DHT22;4064;48.132;11.366;2023-03-05T09:22:02;2.50;99.90
8043;DHT22;4064;48.132;11.366;2023-03-05T09:24:28;2.50;99.90
8043;DHT22;4064;48.132;11.366;2023-03-05T09:26:58;2.50;99.90
8043;DHT22;4064;48.132;11.366;2023-03-05T09:29:25;2.50;99.90
8043;DHT22;4064;48.132;11.366;2023-03-05T09:31:51;2.50;99.90
8043;DHT22;4064;48.132;11.366;2023-03-05T09:34:17;2.40;99.90
8043;DHT22;4064;48.132;11.366;2023-03-05T09:36:43;2.40;99.90
8043;DHT22;4064;48.132;11.366;2023-03-05T09:39:08;2.40;99.90
8043;DHT22;4064;48.132;11.366;2023-03-05T09:47:44;2.50;99.90
8043;DHT22;4064;48.132;11.366;2023-03-05T09:55:56;2.60;99.90
8043;DHT22;4064;48.132;11.366;2023-03-05T10:00:58;2.60;99.90
8043;DHT22;4064;48.132;11.366;2023-03-05T10:03:29;2.60;99.90
8043;DHT22;4064;48.132;11.366;2023-03-05T10:06:01;2.70;99.90
8043;DHT22;4064;48.132;11.366;2023-03-05T10:09:02;2.80;99.90
8043;DHT22;4064;48.132;11.366;2023-03-05T10:11:38;2.80;99.90
8043;DHT22;4064;48.132;11.366;2023-03-05T10:14:04;2.80;99.90
8043;DHT22;4064;48.132;11.366;2023-03-05T10:27:49;3.10;99.90
8043;DHT22;4064;48.132;11.366;2023-03-05T10:42:39;3.00;99.90
8043;DHT22;4064;48.132;11.366;2023-03-05T10:45:29;3.10;99.90
8043;DHT22;4064;48.132;11.366;2023-03-05T10:50:59;3.10;99.90
8043;DHT22;4064;48.132;11.366;2023-03-05T10:56:11;3.10;99.90
8043;DHT22;4064;48.132;11.366;2023-03-05T10:58:37;3.10;99.90
8043;DHT22;4064;48.132;11.366;2023-03-05T11:03:54;3.10;99.90
8043;DHT22;4064;48.132;11.366;2023-03-05T11:06:40;3.10;99.90
8043;DHT22;4064;48.132;11.366;2023-03-05T11:09:24;3.10;99.90
8043;DHT22;4064;48.132;11.366;2023-03-05T11:15:24;3.20;99.90
8043;DHT22;4064;48.132;11.366;2023-03-05T11:17:33;3.20;99.90
8043;DHT22;4064;48.132;11.366;2023-03-05T11:23:16;3.20;99.90
8043;DHT22;4064;48.132;11.366;2023-03-05T11:25:56;3.20;99.90
8043;DHT22;4064;48.132;11.366;2023-03-05T11:28:31;3.30;99.90
8043;DHT22;4064;48.132;11.366;2023-03-05T11:31:21;3.40;99.90
8043;DHT22;4064;48.132;11.366;2023-03-05T11:33:58;3.40;99.90
8043;DHT22;4064;48.132;11.366;2023-03-05T11:41:51;3.50;99.90
8043;DHT22;4064;48.132;11.366;2023-03-05T11:49:45;3.60;99.90
8043;DHT22;4064;48.132;11.366;2023-03-05T11:52:17;3.80;99.90
8043;DHT22;4064;48.132;11.366;2023-03-05T11:57:20;4.10;99.90
8043;DHT22;4064;48.132;11.366;2023-03-05T11:59:47;4.10;99.90
8043;DHT22;4064;48.132;11.366;2023-03-05T12:02:22;4.20;99.90
8043;DHT22;4064;48.132;11.366;2023-03-05T12:04:49;4.40;99.90
8043;DHT22;4064;48.132;11.366;2023-03-05T12:07:24;4.50;99.90
8043;DHT22;4064;48.132;11.366;2023-03-05T12:09:53;4.60;99.90
8043;DHT22;4064;48.132;11.366;2023-03-05T12:20:48;4.50;99.90
8043;DHT22;4064;48.132;11.366;2023-03-05T12:23:20;4.40;99.90
8043;DHT22;4064;48.132;11.366;2023-03-05T12:25:49;4.40;99.90
8043;DHT22;4064;48.132;11.366;2023-03-05T12:31:33;4.40;99.90
8043;DHT22;4064;48.132;11.366;2023-03-05T12:40:32;4.50;99.90
8043;DHT22;4064;48.132;11.366;2023-03-05T12:47:34;4.60;99.70
8043;DHT22;4064;48.132;11.366;2023-03-05T12:50:01;4.60;99.80
8043;DHT22;4064;48.132;11.366;2023-03-05T12:52:31;4.80;99.20
8043;DHT22;4064;48.132;11.366;2023-03-05T12:55:14;4.80;98.70
8043;DHT22;4064;48.132;11.366;2023-03-05T12:57:43;4.80;98.90
8043;DHT22;4064;48.132;11.366;2023-03-05T13:00:15;5.00;99.00
8043;DHT22;4064;48.132;11.366;2023-03-05T13:02:49;5.10;98.70
8043;DHT22;4064;48.132;11.366;2023-03-05T13:05:28;5.40;98.70
8043;DHT22;4064;48.132;11.366;2023-03-05T13:10:56;5.70;97.10
8043;DHT22;4064;48.132;11.366;2023-03-05T13:13:24;6.00;96.90
8043;DHT22;4064;48.132;11.366;2023-03-05T13:15:51;6.10;95.90
8043;DHT22;4064;48.132;11.366;2023-03-05T13:18:26;6.10;95.50
8043;DHT22;4064;48.132;11.366;2023-03-05T13:21:13;6.10;95.20
8043;DHT22;4064;48.132;11.366;2023-03-05T13:24:18;6.20;95.20
8043;DHT22;4064;48.132;11.366;2023-03-05T13:26:39;6.30;95.00
8043;DHT22;4064;48.132;11.366;2023-03-05T13:29:19;6.30;94.30
8043;DHT22;4064;48.132;11.366;2023-03-05T13:31:53;6.20;93.30
8043;DHT22;4064;48.132;11.366;2023-03-05T13:34:25;6.30;94.00
8043;DHT22;4064;48.132;11.366;2023-03-05T13:39:20;6.40;93.00
8043;DHT22;4064;48.132;11.366;2023-03-05T13:42:03;6.40;92.80
8043;DHT22;4064;48.132;11.366;2023-03-05T13:44:30;6.30;92.70
8043;DHT22;4064;48.132;11.366;2023-03-05T13:47:17;6.20;92.50
8043;DHT22;4064;48.132;11.366;2023-03-05T13:49:43;6.20;92.80
8043;DHT22;4064;48.132;11.366;2023-03-05T13:52:09;6.20;92.60
8043;DHT22;4064;48.132;11.366;2023-03-05T13:54:35;6.10;92.50
8043;DHT22;4064;48.132;11.366;2023-03-05T13:57:06;5.90;92.10
8043;DHT22;4064;48.132;11.366;2023-03-05T13:59:36;5.90;92.30
8043;DHT22;4064;48.132;11.366;2023-03-05T14:02:16;5.90;92.30
8043;DHT22;4064;48.132;11.366;2023-03-05T14:04:44;5.70;91.70
8043;DHT22;4064;48.132;11.366;2023-03-05T14:09:55;5.40;91.50
8043;DHT22;4064;48.132;11.366;2023-03-05T14:12:23;5.30;92.00
8043;DHT22;4064;48.132;11.366;2023-03-05T14:14:51;5.20;92.30
8043;DHT22;4064;48.132;11.366;2023-03-05T14:17:41;5.20;92.40
8043;DHT22;4064;48.132;11.366;2023-03-05T14:22:37;5.20;92.50
8043;DHT22;4064;48.132;11.366;2023-03-05T14:25:05;5.20;92.60
8043;DHT22;4064;48.132;11.366;2023-03-05T14:27:35;5.10;92.70
8043;DHT22;4064;48.132;11.366;2023-03-05T14:30:03;5.10;92.70
8043;DHT22;4064;48.132;11.366;2023-03-05T14:32:31;5.00;92.40
8043;DHT22;4064;48.132;11.366;2023-03-05T14:34:59;4.90;92.30
8043;DHT22;4064;48.132;11.366;2023-03-05T14:37:34;4.80;92.30
8043;DHT22;4064;48.132;11.366;2023-03-05T14:42:53;4.70;92.30
8043;DHT22;4064;48.132;11.366;2023-03-05T14:45:22;4.70;92.20
8043;DHT22;4064;48.132;11.366;2023-03-05T14:47:53;4.60;92.20
8043;DHT22;4064;48.132;11.366;2023-03-05T14:50:25;4.60;92.30
8043;DHT22;4064;48.132;11.366;2023-03-05T14:53:05;4.50;92.20
8043;DHT22;4064;48.132;11.366;2023-03-05T14:55:31;4.50;92.30
8043;DHT22;4064;48.132;11.366;2023-03-05T14:58:11;4.40;92.20
8043;DHT22;4064;48.132;11.366;2023-03-05T15:00:37;4.30;92.20
8043;DHT22;4064;48.132;11.366;2023-03-05T15:03:03;4.30;92.70
8043;DHT22;4064;48.132;11.366;2023-03-05T15:05:29;4.20;92.70
8043;DHT22;4064;48.132;11.366;2023-03-05T15:07:55;4.20;93.00
8043;DHT22;4064;48.132;11.366;2023-03-05T15:10:23;4.10;93.40
8043;DHT22;4064;48.132;11.366;2023-03-05T15:12:50;4.10;93.70
8043;DHT22;4064;48.132;11.366;2023-03-05T15:15:17;4.10;93.80
8043;DHT22;4064;48.132;11.366;2023-03-05T15:17:46;4.10;94.20
8043;DHT22;4064;48.132;11.366;2023-03-05T15:20:18;4.10;94.20
8043;DHT22;4064;48.132;11.366;2023-03-05T15:22:44;4.00;94.00
8043;DHT22;4064;48.132;11.366;2023-03-05T15:25:10;4.00;94.20
8043;DHT22;4064;48.132;11.366;2023-03-05T15:27:36;4.00;94.20
8043;DHT22;4064;48.132;11.366;2023-03-05T15:30:04;3.90;94.30
8043;DHT22;4064;48.132;11.366;2023-03-05T15:32:30;3.90;94.30
8043;DHT22;4064;48.132;11.366;2023-03-05T15:34:56;3.90;94.40
8043;DHT22;4064;48.132;11.366;2023-03-05T15:37:22;3.80;94.30
8043;DHT22;4064;48.132;11.366;2023-03-05T15:39:48;3.80;94.50
8043;DHT22;4064;48.132;11.366;2023-03-05T15:42:14;3.80;94.70
8043;DHT22;4064;48.132;11.366;2023-03-05T15:44:40;3.80;94.70
8043;DHT22;4064;48.132;11.366;2023-03-05T15:47:07;3.80;94.90
8043;DHT22;4064;48.132;11.366;2023-03-05T15:49:32;3.80;94.90
8043;DHT22;4064;48.132;11.366;2023-03-05T15:51:58;3.80;95.00
8043;DHT22;4064;48.132;11.366;2023-03-05T15:54:24;3.70;95.10
8043;DHT22;4064;48.132;11.366;2023-03-05T15:56:50;3.70;95.30
8043;DHT22;4064;48.132;11.366;2023-03-05T15:59:17;3.70;95.40
8043;DHT22;4064;48.132;11.366;2023-03-05T16:01:47;3.60;95.40
8043;DHT22;4064;48.132;11.366;2023-03-05T16:04:14;3.60;95.10
8043;DHT22;4064;48.132;11.366;2023-03-05T16:06:42;3.50;94.00
8043;DHT22;4064;48.132;11.366;2023-03-05T16:09:08;3.40;93.60
8043;DHT22;4064;48.132;11.366;2023-03-05T16:11:37;3.40;93.70
8043;DHT22;4064;48.132;11.366;2023-03-05T16:14:06;3.40;93.70
8043;DHT22;4064;48.132;11.366;2023-03-05T16:16:34;3.30;93.30
8043;DHT22;4064;48.132;11.366;2023-03-05T16:19:01;3.30;93.00
8043;DHT22;4064;48.132;11.366;2023-03-05T16:21:29;3.30;92.80
8043;DHT22;4064;48.132;11.366;2023-03-05T16:23:55;3.20;92.80
8043;DHT22;4064;48.132;11.366;2023-03-05T16:26:22;3.20;92.50
8043;DHT22;4064;48.132;11.366;2023-03-05T16:28:48;3.20;92.40
8043;DHT22;4064;48.132;11.366;2023-03-05T16:31:14;3.10;92.10
8043;DHT22;4064;48.132;11.366;2023-03-05T16:33:39;3.00;91.90
8043;DHT22;4064;48.132;11.366;2023-03-05T16:36:19;3.00;92.00
8043;DHT22;4064;48.132;11.366;2023-03-05T16:38:47;3.00;92.20
8043;DHT22;4064;48.132;11.366;2023-03-05T16:41:14;3.00;92.30
8043;DHT22;4064;48.132;11.366;2023-03-05T16:43:42;3.00;92.20
8043;DHT22;4064;48.132;11.366;2023-03-05T16:46:08;3.00;92.60
8043;DHT22;4064;48.132;11.366;2023-03-05T16:48:34;2.90;92.60
8043;DHT22;4064;48.132;11.366;2023-03-05T16:51:00;2.90;92.70
8043;DHT22;4064;48.132;11.366;2023-03-05T16:53:26;2.90;92.60
8043;DHT22;4064;48.132;11.366;2023-03-05T16:55:51;2.80;92.60
8043;DHT22;4064;48.132;11.366;2023-03-05T16:58:17;2.80;92.60
8043;DHT22;4064;48.132;11.366;2023-03-05T17:00:43;2.80;92.80
8043;DHT22;4064;48.132;11.366;2023-03-05T17:03:09;2.80;92.70
8043;DHT22;4064;48.132;11.366;2023-03-05T17:05:36;2.70;92.60
8043;DHT22;4064;48.132;11.366;2023-03-05T17:08:02;2.70;92.40
8043;DHT22;4064;48.132;11.366;2023-03-05T17:10:32;2.70;92.50
8043;DHT22;4064;48.132;11.366;2023-03-05T17:12:57;2.60;92.60
8043;DHT22;4064;48.132;11.366;2023-03-05T17:15:23;2.60;92.90
8043;DHT22;4064;48.132;11.366;2023-03-05T17:17:49;2.60;93.10
8043;DHT22;4064;48.132;11.366;2023-03-05T17:20:15;2.60;93.20
8043;DHT22;4064;48.132;11.366;2023-03-05T17:22:41;2.60;93.00
8043;DHT22;4064;48.132;11.366;2023-03-05T17:25:07;2.60;93.10
8043;DHT22;4064;48.132;11.366;2023-03-05T17:27:34;2.50;92.90
8043;DHT22;4064;48.132;11.366;2023-03-05T17:30:00;2.50;93.20
8043;DHT22;4064;48.132;11.366;2023-03-05T17:32:25;2.50;93.20
8043;DHT22;4064;48.132;11.366;2023-03-05T17:34:52;2.50;93.20
8043;DHT22;4064;48.132;11.366;2023-03-05T17:37:19;2.50;93.60
8043;DHT22;4064;48.132;11.366;2023-03-05T17:39:45;2.50;93.00
8043;DHT22;4064;48.132;11.366;2023-03-05T17:42:11;2.40;93.10
8043;DHT22;4064;48.132;11.366;2023-03-05T17:44:37;2.50;93.20
8043;DHT22;4064;48.132;11.366;2023-03-05T17:47:03;2.40;93.20
8043;DHT22;4064;48.132;11.366;2023-03-05T17:49:29;2.40;93.40
8043;DHT22;4064;48.132;11.366;2023-03-05T17:51:55;2.40;93.20
8043;DHT22;4064;48.132;11.366;2023-03-05T17:54:21;2.40;93.20
8043;DHT22;4064;48.132;11.366;2023-03-05T17:56:46;2.40;93.30
8043;DHT22;4064;48.132;11.366;2023-03-05T17:59:13;2.50;93.30